createdAt,value
2022-08-01T00:01:35.948Z,95263.36
2022-08-01T00:04:05.437Z,95270.46
2022-08-01T00:06:34.543Z,95263.20
2022-08-01T00:09:03.202Z,95261.42
2022-08-01T00:11:41.670Z,95260.41
2022-08-01T00:14:14.065Z,95274.94
2022-08-01T00:16:42.715Z,95267.06
2022-08-01T00:19:11.583Z,95276.03
2022-08-01T00:21:40.303Z,95277.14
2022-08-01T00:24:15.369Z,95275.68
2022-08-01T00:26:43.699Z,95278.79
2022-08-01T00:30:11.765Z,95278.25
2022-08-01T00:31:44.418Z,95288.08
2022-08-01T00:34:13.104Z,95288.44
2022-08-01T00:36:45.634Z,95295.58
2022-08-01T00:39:14.455Z,95285.08
2022-08-01T00:41:45.514Z,95284.47
2022-08-01T00:44:14.244Z,95288.75
2022-08-01T00:46:43.080Z,95285.47
2022-08-01T00:49:23.754Z,95285.47
2022-08-01T00:51:48.161Z,95278.21
2022-08-01T00:54:19.534Z,95276.20
2022-08-01T00:56:48.389Z,95276.87
2022-08-01T00:59:19.529Z,95273.63
2022-08-01T01:01:49.983Z,95272.00
2022-08-01T01:04:20.784Z,95261.94
2022-08-01T01:06:54.106Z,95259.64
2022-08-01T01:09:45.102Z,95253.91
2022-08-01T01:12:35.954Z,95252.91
2022-08-01T01:15:22.855Z,95250.20
2022-08-01T01:17:54.512Z,95255.31
2022-08-01T01:20:36.491Z,95254.01
2022-08-01T01:23:19.421Z,95248.62
2022-08-01T01:26:15.423Z,95250.51
2022-08-01T01:29:20.449Z,95250.09
2022-08-01T01:32:17.579Z,95246.39
2022-08-01T01:34:52.325Z,95244.23
2022-08-01T01:37:24.028Z,95237.91
2022-08-01T01:39:54.830Z,95234.75
2022-08-01T01:42:26.565Z,95234.80
2022-08-01T01:44:56.837Z,95222.73
2022-08-01T01:47:27.733Z,95226.83
2022-08-01T01:49:58.427Z,95223.80
2022-08-01T01:52:28.385Z,95224.14
2022-08-01T01:54:59.712Z,95222.66
2022-08-01T01:57:31.845Z,95222.08
2022-08-01T02:00:01.348Z,95219.08
2022-08-01T02:02:31.580Z,95216.88
2022-08-01T02:05:02.969Z,95217.05
2022-08-01T02:07:32.553Z,95211.24
2022-08-01T02:10:06.446Z,95217.64
2022-08-01T02:12:38.006Z,95207.74
2022-08-01T02:15:09.394Z,95212.17
2022-08-01T02:17:42.283Z,95212.01
2022-08-01T02:20:12.446Z,95211.17
2022-08-01T02:22:47.149Z,95209.95
2022-08-01T02:25:27.741Z,95211.24
2022-08-01T02:28:09.151Z,95211.88
2022-08-01T02:30:40.631Z,95212.30
2022-08-01T02:33:16.088Z,95209.77
2022-08-01T02:36:32.258Z,95207.83
2022-08-01T02:38:22.048Z,95212.81
2022-08-01T02:40:53.910Z,95211.15
2022-08-01T02:43:27.062Z,95215.70
2022-08-01T02:45:58.713Z,95206.63
2022-08-01T02:48:29.101Z,95205.84
2022-08-01T02:51:00.449Z,95215.85
2022-08-01T02:53:39.042Z,95213.26
2022-08-01T02:56:03.973Z,95215.41
2022-08-01T02:58:33.452Z,95206.05
2022-08-01T03:01:03.651Z,95200.94
2022-08-01T03:03:33.238Z,95209.70
2022-08-01T03:06:03.818Z,95208.62
2022-08-01T03:08:33.618Z,95211.72
2022-08-01T03:11:04.410Z,95217.66
2022-08-01T03:13:36.320Z,95217.72
2022-08-01T03:16:06.913Z,95217.72
2022-08-01T03:18:37.830Z,95213.19
2022-08-01T03:21:11.135Z,95210.91
2022-08-01T03:23:40.916Z,95211.00
2022-08-01T03:26:12.962Z,95212.81
2022-08-01T03:28:43.659Z,95218.19
2022-08-01T03:31:14.762Z,95217.98
2022-08-01T03:33:43.578Z,95223.95
2022-08-01T03:36:14.730Z,95216.41
2022-08-01T03:38:47.210Z,95219.66
2022-08-01T03:41:18.846Z,95218.11
2022-08-01T03:43:50.504Z,95216.11
2022-08-01T03:46:25.943Z,95217.39
2022-08-01T03:48:57.124Z,95211.29
2022-08-01T03:51:26.103Z,95222.25
2022-08-01T03:53:57.948Z,95224.09
2022-08-01T03:56:27.251Z,95222.92
2022-08-01T03:58:56.277Z,95228.17
2022-08-01T04:01:25.575Z,95228.93
2022-08-01T04:03:54.852Z,95223.98
2022-08-01T04:06:23.575Z,95224.27
2022-08-01T04:08:58.216Z,95226.55
2022-08-01T04:11:29.928Z,95229.85
2022-08-01T04:13:58.843Z,95226.82
2022-08-01T04:16:27.955Z,95222.99
2022-08-01T04:18:56.719Z,95231.82
2022-08-01T04:21:31.603Z,95233.58
2022-08-01T04:24:04.834Z,95239.34
2022-08-01T04:26:36.733Z,95235.89
2022-08-01T04:29:07.167Z,95239.00
2022-08-01T04:31:36.975Z,95239.20
2022-08-01T04:34:08.477Z,95231.42
2022-08-01T04:36:40.147Z,95234.88
2022-08-01T04:39:10.699Z,95231.20
2022-08-01T04:41:40.793Z,95235.14
2022-08-01T04:44:09.593Z,95225.33
2022-08-01T04:46:39.291Z,95235.60
2022-08-01T04:49:10.504Z,95224.66
2022-08-01T04:51:40.617Z,95230.82
2022-08-01T04:54:09.269Z,95232.88
2022-08-01T04:56:38.000Z,95234.12
2022-08-01T04:59:24.722Z,95242.80
2022-08-01T05:01:53.524Z,95236.39
2022-08-01T05:04:26.669Z,95235.03
2022-08-01T05:06:55.596Z,95225.51
2022-08-01T05:09:27.084Z,95218.25
2022-08-01T05:11:54.806Z,95225.53
2022-08-01T05:14:23.527Z,95214.14
2022-08-01T05:16:54.028Z,95212.91
2022-08-01T05:19:23.538Z,95218.16
2022-08-01T05:21:53.151Z,95216.48
2022-08-01T05:24:23.756Z,95214.16
2022-08-01T05:26:57.791Z,95208.95
2022-08-01T05:29:27.601Z,95210.82
2022-08-01T05:31:57.820Z,95206.92
2022-08-01T05:34:26.682Z,95210.95
2022-08-01T05:36:57.733Z,95211.44
2022-08-01T05:39:25.950Z,95210.37
2022-08-01T05:41:54.764Z,95218.45
2022-08-01T05:44:23.503Z,95222.58
2022-08-01T05:46:52.307Z,95213.34
2022-08-01T05:49:21.273Z,95215.42
2022-08-01T05:51:50.126Z,95212.61
2022-08-01T05:54:21.888Z,95218.62
2022-08-01T05:56:50.592Z,95216.55
2022-08-01T05:59:22.635Z,95214.95
2022-08-01T06:01:53.027Z,95231.00
2022-08-01T06:04:22.082Z,95219.86
2022-08-01T06:06:52.726Z,95222.75
2022-08-01T06:09:29.075Z,95224.63
2022-08-01T06:12:05.074Z,95224.27
2022-08-01T06:14:36.375Z,95221.94
2022-08-01T06:17:09.706Z,95214.34
2022-08-01T06:19:45.760Z,95225.53
2022-08-01T06:22:20.615Z,95228.02
2022-08-01T06:24:53.259Z,95227.45
2022-08-01T06:27:26.843Z,95226.60
2022-08-01T06:30:08.284Z,95226.23
2022-08-01T06:32:40.248Z,95220.48
2022-08-01T06:35:14.765Z,95215.90
2022-08-01T06:38:10.284Z,95214.84
2022-08-01T06:40:51.057Z,95220.25
2022-08-01T06:43:57.805Z,95213.75
2022-08-01T06:46:32.522Z,95217.63
2022-08-01T06:49:00.995Z,95211.97
2022-08-01T06:51:29.908Z,95203.07
2022-08-01T06:53:58.920Z,95210.75
2022-08-01T06:56:28.016Z,95203.72
2022-08-01T06:59:00.571Z,95192.33
2022-08-01T07:01:31.001Z,95194.67
2022-08-01T07:04:13.808Z,95188.69
2022-08-01T07:06:49.046Z,95189.41
2022-08-01T07:09:16.932Z,95192.60
2022-08-01T07:11:52.476Z,95189.64
2022-08-01T07:14:29.660Z,95194.53
2022-08-01T07:17:08.076Z,95186.95
2022-08-01T07:19:38.516Z,95193.52
2022-08-01T07:22:08.302Z,95202.70
2022-08-01T07:24:38.498Z,95190.73
2022-08-01T07:27:23.132Z,95197.86
2022-08-01T07:29:42.531Z,95200.91
2022-08-01T07:32:11.273Z,95196.66
2022-08-01T07:34:41.604Z,95198.84
2022-08-01T07:37:12.004Z,95197.41
2022-08-01T07:39:40.809Z,95210.42
2022-08-01T07:42:10.031Z,95197.33
2022-08-01T07:44:39.807Z,95196.96
2022-08-01T07:47:08.628Z,95200.59
2022-08-01T07:49:40.424Z,95197.72
2022-08-01T07:52:08.264Z,95209.83
2022-08-01T07:54:51.791Z,95199.41
2022-08-01T07:57:16.683Z,95192.28
2022-08-01T07:59:45.614Z,95196.77
2022-08-01T08:02:14.656Z,95204.95
2022-08-01T08:04:49.088Z,95199.48
2022-08-01T08:07:17.592Z,95199.16
2022-08-01T08:09:50.974Z,95196.31
2022-08-01T08:12:19.234Z,95196.77
2022-08-01T08:14:49.758Z,95198.82
2022-08-01T08:17:22.601Z,95203.05
2022-08-01T08:19:51.447Z,95186.86
2022-08-01T08:22:22.983Z,95198.23
2022-08-01T08:24:52.796Z,95185.39
2022-08-01T08:27:21.489Z,95184.37
2022-08-01T08:29:50.302Z,95188.55
2022-08-01T08:32:19.024Z,95191.42
2022-08-01T08:34:51.579Z,95181.72
2022-08-01T08:37:20.949Z,95181.88
2022-08-01T08:39:51.078Z,95186.00
2022-08-01T08:42:21.015Z,95181.90
2022-08-01T08:44:51.343Z,95188.75
2022-08-01T08:47:21.084Z,95191.28
2022-08-01T08:49:52.100Z,95194.65
2022-08-01T08:52:22.943Z,95185.12
2022-08-01T08:54:53.621Z,95181.49
2022-08-01T08:57:32.313Z,95187.39
2022-08-01T08:59:56.290Z,95181.78
2022-08-01T09:02:33.582Z,95183.13
2022-08-01T09:05:03.328Z,95170.25
2022-08-01T09:07:32.099Z,95180.84
2022-08-01T09:10:02.033Z,95177.07
2022-08-01T09:12:31.013Z,95183.45
2022-08-01T09:15:00.389Z,95175.45
2022-08-01T09:17:29.222Z,95173.85
2022-08-01T09:19:59.033Z,95173.42
2022-08-01T09:22:28.583Z,95172.84
2022-08-01T09:25:06.843Z,95162.95
2022-08-01T09:27:36.862Z,95163.59
2022-08-01T09:30:17.318Z,95157.79
2022-08-01T09:33:17.803Z,95153.87
2022-08-01T09:35:43.884Z,95165.98
2022-08-01T09:38:20.965Z,95169.77
2022-08-01T09:40:59.729Z,95171.88
2022-08-01T09:43:38.151Z,95168.72
2022-08-01T09:46:14.166Z,95148.42
2022-08-01T09:49:07.421Z,95156.73
2022-08-01T09:51:59.433Z,95165.90
2022-08-01T09:54:22.653Z,95167.33
2022-08-01T09:56:56.210Z,95162.38
2022-08-01T09:59:40.874Z,95167.44
2022-08-01T10:02:02.235Z,95158.92
2022-08-01T10:04:34.297Z,95114.17
2022-08-01T10:07:21.853Z,95158.98
2022-08-01T10:09:45.285Z,95157.55
2022-08-01T10:12:27.190Z,95148.22
2022-08-01T10:15:02.282Z,95160.14
2022-08-01T10:17:50.392Z,95162.92
2022-08-01T10:20:29.019Z,95156.04
2022-08-01T10:22:50.354Z,95096.20
2022-08-01T10:25:42.027Z,95147.30
2022-08-01T10:28:04.260Z,95146.09
2022-08-01T10:30:33.493Z,95147.63
2022-08-01T10:33:06.328Z,95142.17
2022-08-01T10:35:46.694Z,95133.55
2022-08-01T10:38:10.713Z,95135.79
2022-08-01T10:40:47.129Z,95128.48
2022-08-01T10:43:23.870Z,95131.59
2022-08-01T10:45:59.466Z,95125.53
2022-08-01T10:49:01.303Z,95124.45
2022-08-01T10:51:52.849Z,95132.11
2022-08-01T10:57:17.007Z,95128.63
2022-08-01T11:00:00.960Z,95127.79
2022-08-01T11:02:35.485Z,95119.55
2022-08-01T11:05:18.156Z,95127.80
2022-08-01T11:08:01.245Z,95125.15
2022-08-01T11:10:51.599Z,95114.35
2022-08-01T11:13:25.503Z,95113.22
2022-08-01T11:16:06.041Z,95122.00
2022-08-01T11:18:38.206Z,95112.22
2022-08-01T11:21:57.360Z,95124.70
2022-08-01T11:23:57.798Z,95111.81
2022-08-01T11:26:29.104Z,95124.16
2022-08-01T11:29:21.531Z,95119.05
2022-08-01T11:31:52.584Z,95112.89
2022-08-01T11:34:24.599Z,95117.64
2022-08-01T11:37:00.224Z,95114.07
2022-08-01T11:39:38.840Z,95110.07
2022-08-01T11:42:19.381Z,95099.73
2022-08-01T11:44:52.832Z,95099.20
2022-08-01T11:47:24.737Z,95109.13
2022-08-01T11:49:59.995Z,95105.50
2022-08-01T11:52:31.534Z,95097.91
2022-08-01T11:55:36.766Z,95102.94
2022-08-01T11:58:22.495Z,95104.02
2022-08-01T12:00:47.231Z,95087.19
2022-08-01T12:03:28.086Z,95102.50
2022-08-01T12:05:49.764Z,95091.15
2022-08-01T12:08:30.666Z,95096.58
2022-08-01T12:11:02.757Z,95098.08
2022-08-01T12:13:47.767Z,95093.81
2022-08-01T12:16:16.631Z,95085.92
2022-08-01T12:18:45.991Z,95090.36
2022-08-01T12:21:17.041Z,95105.43
2022-08-01T12:23:49.549Z,95102.22
2022-08-01T12:26:29.299Z,95098.88
2022-08-01T12:28:53.742Z,95093.69
2022-08-01T12:31:27.011Z,95099.08
2022-08-01T12:33:58.480Z,95108.67
2022-08-01T12:36:34.723Z,95104.47
2022-08-01T12:39:05.519Z,95100.20
2022-08-01T12:41:38.146Z,95099.72
2022-08-01T12:44:16.633Z,95098.02
2022-08-01T12:46:46.870Z,95102.50
2022-08-01T12:49:17.265Z,95097.61
2022-08-01T12:51:57.021Z,95095.62
2022-08-01T12:54:21.897Z,95098.71
2022-08-01T12:56:54.048Z,95095.30
2022-08-01T12:59:28.019Z,95087.59
2022-08-01T13:01:59.669Z,95090.70
2022-08-01T13:04:30.553Z,95086.50
2022-08-01T13:07:04.362Z,95087.48
2022-08-01T13:09:34.987Z,95075.42
2022-08-01T13:12:06.796Z,95073.70
2022-08-01T13:14:43.240Z,95082.04
2022-08-01T13:17:16.031Z,95074.06
2022-08-01T13:19:58.698Z,95065.22
2022-08-01T13:22:25.243Z,95072.27
2022-08-01T13:24:54.161Z,95069.00
2022-08-01T13:27:27.998Z,95066.22
2022-08-01T13:29:59.903Z,95070.39
2022-08-01T13:32:32.427Z,95070.63
2022-08-01T13:35:11.028Z,95071.82
2022-08-01T13:37:44.233Z,95062.24
2022-08-01T13:40:13.882Z,95057.79
2022-08-01T13:42:42.901Z,95053.20
2022-08-01T13:45:14.457Z,95066.11
2022-08-01T13:48:03.779Z,95059.49
2022-08-01T13:50:17.119Z,95055.02
2022-08-01T13:52:46.257Z,95050.48
2022-08-01T13:55:16.750Z,95058.53
2022-08-01T13:57:48.689Z,95059.19
2022-08-01T14:00:20.516Z,95051.12
2022-08-01T14:02:53.869Z,95058.62
2022-08-01T14:05:24.432Z,95057.95
2022-08-01T14:07:56.344Z,95056.75
2022-08-01T14:10:26.846Z,95056.56
2022-08-01T14:12:57.587Z,95049.52
2022-08-01T14:15:37.963Z,95053.28
2022-08-01T14:18:07.202Z,95052.58
2022-08-01T14:20:39.705Z,95052.62
2022-08-01T14:23:11.410Z,95057.82
2022-08-01T14:26:03.129Z,95053.05
2022-08-01T14:28:13.242Z,95049.65
2022-08-01T14:30:43.763Z,95050.33
2022-08-01T14:33:17.564Z,95052.70
2022-08-01T14:36:01.272Z,95051.30
2022-08-01T14:38:29.031Z,95052.63
2022-08-01T14:40:55.232Z,95061.07
2022-08-01T14:43:29.399Z,95057.52
2022-08-01T14:45:55.811Z,95048.38
2022-08-01T14:48:26.703Z,95056.66
2022-08-01T14:50:55.388Z,95044.77
2022-08-01T14:53:24.064Z,95057.11
2022-08-01T14:55:52.745Z,95059.86
2022-08-01T14:58:21.512Z,95053.44
2022-08-01T15:00:51.692Z,95060.73
2022-08-01T15:03:20.530Z,95054.25
2022-08-01T15:05:49.648Z,95061.28
2022-08-01T15:08:20.785Z,95072.19
2022-08-01T15:10:49.467Z,95060.50
2022-08-01T15:13:18.864Z,95064.08
2022-08-01T15:15:51.372Z,95065.04
2022-08-01T15:18:22.165Z,95062.95
2022-08-01T15:20:57.595Z,95063.30
2022-08-01T15:23:25.931Z,95055.08
2022-08-01T15:25:56.130Z,95059.02
2022-08-01T15:28:24.804Z,95059.69
2022-08-01T15:30:53.628Z,95063.31
2022-08-01T15:33:22.992Z,95064.48
2022-08-01T15:35:52.809Z,95061.79
2022-08-01T15:38:22.760Z,95059.53
2022-08-01T15:40:59.504Z,95062.07
2022-08-01T15:43:28.085Z,95060.62
2022-08-01T15:45:56.647Z,95054.63
2022-08-01T15:48:25.361Z,95060.38
2022-08-01T15:50:54.075Z,95060.30
2022-08-01T15:53:22.638Z,95059.44
2022-08-01T15:55:55.485Z,95060.31
2022-08-01T15:58:24.358Z,95058.91
2022-08-01T16:00:54.785Z,95059.53
2022-08-01T16:03:25.681Z,95063.55
2022-08-01T16:05:54.788Z,95052.63
2022-08-01T16:08:26.165Z,95063.18
2022-08-01T16:10:54.967Z,95056.22
2022-08-01T16:13:23.833Z,95064.94
2022-08-01T16:15:53.256Z,95068.30
2022-08-01T16:21:18.032Z,95077.96
2022-08-01T16:23:50.018Z,95067.13
2022-08-01T16:26:27.274Z,95072.56
2022-08-01T16:28:52.817Z,95074.55
2022-08-01T16:31:51.888Z,95076.56
2022-08-01T16:34:02.753Z,95070.92
2022-08-01T16:36:32.971Z,95067.09
2022-08-01T16:39:11.137Z,95080.01
2022-08-01T16:41:39.802Z,95076.53
2022-08-01T16:44:08.494Z,95075.45
2022-08-01T16:46:37.091Z,95080.53
2022-08-01T16:49:09.014Z,95077.61
2022-08-01T16:51:47.691Z,95070.53
2022-08-01T16:54:25.085Z,95085.34
2022-08-01T16:56:38.739Z,95083.47
2022-08-01T16:59:07.457Z,95085.45
2022-08-01T17:02:00.872Z,95084.59
2022-08-01T17:04:07.374Z,95092.76
2022-08-01T17:06:36.096Z,95098.97
2022-08-01T17:09:09.609Z,95100.20
2022-08-01T17:11:38.290Z,95095.61
2022-08-01T17:14:06.998Z,95089.29
2022-08-01T17:16:36.296Z,95090.38
2022-08-01T17:19:05.346Z,95093.33
2022-08-01T17:21:34.075Z,95092.25
2022-08-01T17:24:02.665Z,95095.75
2022-08-01T17:26:32.381Z,95096.17
2022-08-01T17:29:00.876Z,95094.55
2022-08-01T17:31:29.516Z,95104.47
2022-08-01T17:33:58.060Z,95103.58
2022-08-01T17:36:26.729Z,95102.81
2022-08-01T17:38:55.276Z,95102.67
2022-08-01T17:41:23.971Z,95101.62
2022-08-01T17:43:53.094Z,95108.34
2022-08-01T17:46:22.274Z,95109.25
2022-08-01T17:48:51.250Z,95114.70
2022-08-01T17:51:24.610Z,95123.70
2022-08-01T17:53:56.962Z,95119.68
2022-08-01T17:56:27.006Z,95132.00
2022-08-01T17:58:57.732Z,95135.82
2022-08-01T18:01:27.406Z,95137.66
2022-08-01T18:03:58.537Z,95148.72
2022-08-01T18:06:35.895Z,95148.72
2022-08-01T18:09:05.647Z,95151.63
2022-08-01T18:11:37.804Z,95159.06
2022-08-01T18:14:07.558Z,95160.42
2022-08-01T18:16:36.265Z,95163.32
2022-08-01T18:19:07.902Z,95163.33
2022-08-01T18:21:39.801Z,95167.58
2022-08-01T18:24:07.622Z,95175.13
2022-08-01T18:26:39.264Z,95180.23
2022-08-01T18:29:11.236Z,95177.83
2022-08-01T18:31:50.760Z,95188.23
2022-08-01T18:34:21.971Z,95189.44
2022-08-01T18:36:56.886Z,95191.57
2022-08-01T18:39:34.530Z,95199.41
2022-08-01T18:42:04.887Z,95211.66
2022-08-01T18:44:33.873Z,95214.05
2022-08-01T18:47:13.330Z,95216.30
2022-08-01T18:53:26.523Z,95224.11
2022-08-01T18:56:00.160Z,95231.94
2022-08-01T18:58:34.327Z,95233.45
2022-08-01T19:01:05.486Z,95235.51
2022-08-01T19:03:42.259Z,95235.36
2022-08-01T19:06:11.341Z,95238.98
2022-08-01T19:08:50.113Z,95247.41
2022-08-01T19:11:29.295Z,95246.92
2022-08-01T19:13:58.225Z,95250.22
2022-08-01T19:16:29.158Z,95257.12
2022-08-01T19:18:57.921Z,95253.80
2022-08-01T19:21:27.174Z,95256.43
2022-08-01T19:24:13.733Z,95258.39
2022-08-01T19:26:56.734Z,95257.45
2022-08-01T19:29:35.666Z,95266.45
2022-08-01T19:32:08.666Z,95264.95
2022-08-01T19:34:37.736Z,95263.23
2022-08-01T19:37:08.359Z,95269.84
2022-08-01T19:39:37.438Z,95267.61
2022-08-01T19:42:06.265Z,95274.71
2022-08-01T19:44:35.652Z,95270.44
2022-08-01T19:47:06.588Z,95273.61
2022-08-01T19:49:38.806Z,95272.16
2022-08-01T19:52:11.477Z,95274.23
2022-08-01T19:54:44.803Z,95272.95
2022-08-01T19:57:16.041Z,95269.53
2022-08-01T19:59:54.976Z,95272.64
2022-08-01T20:02:22.595Z,95268.97
2022-08-01T20:04:51.297Z,95266.50
2022-08-01T20:07:20.226Z,95267.00
2022-08-01T20:09:50.771Z,95263.68
2022-08-01T20:12:26.259Z,95271.36
2022-08-01T20:14:55.013Z,95265.77
2022-08-01T20:17:27.760Z,95271.09
2022-08-01T20:19:56.514Z,95274.14
2022-08-01T20:22:34.009Z,95277.34
2022-08-01T20:25:07.390Z,95282.17
2022-08-01T20:27:43.451Z,95281.32
2022-08-01T20:30:13.921Z,95281.77
2022-08-01T20:32:44.754Z,95284.48
2022-08-01T20:35:14.513Z,95281.44
2022-08-01T20:38:06.243Z,95278.41
2022-08-01T20:40:21.939Z,95287.20
2022-08-01T20:42:52.521Z,95283.08
2022-08-01T20:45:23.001Z,95281.47
2022-08-01T20:47:54.038Z,95281.69
2022-08-01T20:50:53.748Z,95221.47
2022-08-01T20:53:11.848Z,95276.02
2022-08-01T20:55:49.300Z,95276.17
2022-08-01T20:58:21.106Z,95277.63
2022-08-01T21:00:53.154Z,95276.05
2022-08-01T21:03:26.250Z,95280.56
2022-08-01T21:05:58.950Z,95275.26
2022-08-01T21:08:47.557Z,95282.57
2022-08-01T21:11:19.261Z,95282.85
2022-08-01T21:13:49.471Z,95277.80
2022-08-01T21:16:25.264Z,95273.73
2022-08-01T21:19:24.368Z,95277.08
2022-08-01T21:21:42.416Z,95278.11
2022-08-01T21:24:16.592Z,95276.88
2022-08-01T21:26:46.738Z,95276.90
2022-08-01T21:29:19.435Z,95270.63
2022-08-01T21:31:50.894Z,95270.03
2022-08-01T21:34:26.599Z,95271.00
2022-08-01T21:36:55.773Z,95266.45
2022-08-01T21:39:25.750Z,95270.05
2022-08-01T21:42:03.964Z,95276.99
2022-08-01T21:44:28.647Z,95274.13
2022-08-01T21:47:00.873Z,95267.39
2022-08-01T21:49:30.311Z,95271.71
2022-08-01T21:52:05.487Z,95265.81
2022-08-01T21:55:10.810Z,95267.96
2022-08-01T21:58:00.105Z,95265.45
2022-08-01T22:00:29.847Z,95267.80
2022-08-01T22:03:19.941Z,95264.77
2022-08-01T22:05:51.659Z,95260.55
2022-08-01T22:08:31.788Z,95266.23
2022-08-01T22:11:03.580Z,95190.83
2022-08-01T22:13:40.003Z,95259.74
2022-08-01T22:16:15.958Z,95256.36
2022-08-01T22:18:46.987Z,95242.90
2022-08-01T22:21:19.958Z,95258.09
2022-08-01T22:23:50.695Z,95259.70
2022-08-01T22:26:24.607Z,95257.09
2022-08-01T22:28:55.132Z,95252.67
2022-08-01T22:31:25.167Z,95260.20
2022-08-01T22:33:54.675Z,95252.37
2022-08-01T22:36:23.769Z,95253.20
2022-08-01T22:38:53.991Z,95248.14
2022-08-01T22:41:25.689Z,95248.41
2022-08-01T22:44:01.483Z,95252.19
2022-08-01T22:46:42.602Z,95248.47
2022-08-01T22:49:34.948Z,95245.27
2022-08-01T22:52:27.882Z,95251.87
2022-08-01T22:55:07.894Z,95247.64
2022-08-01T22:58:01.132Z,95243.16
2022-08-01T23:00:32.298Z,95242.66
2022-08-01T23:03:20.830Z,95236.83
2022-08-01T23:05:52.765Z,95237.42
2022-08-01T23:08:24.781Z,95236.90
2022-08-01T23:10:56.054Z,95237.49
2022-08-01T23:13:26.137Z,95231.49
2022-08-01T23:15:55.564Z,95233.38
2022-08-01T23:18:29.800Z,95235.38
2022-08-01T23:21:00.370Z,95234.42
2022-08-01T23:23:31.862Z,95238.14
2022-08-01T23:26:02.206Z,95239.16
2022-08-01T23:28:34.197Z,95237.22
2022-08-01T23:31:04.307Z,95238.80
2022-08-01T23:33:33.056Z,95236.36
2022-08-01T23:36:01.741Z,95232.59
2022-08-01T23:38:31.307Z,95231.25
2022-08-01T23:41:00.086Z,95230.33
2022-08-01T23:43:28.776Z,95230.06
2022-08-01T23:46:04.117Z,95227.45
2022-08-01T23:48:27.839Z,95225.24
2022-08-01T23:51:07.658Z,95220.69
2022-08-01T23:53:40.026Z,95224.30
2022-08-01T23:56:08.644Z,95226.56
2022-08-01T23:58:37.506Z,95217.11
